createdAt,value
2023-03-08T00:00:19.497Z,5.40
2023-03-08T00:02:54.522Z,5.46
2023-03-08T00:05:57.049Z,5.43
2023-03-08T00:08:49.868Z,5.47
2023-03-08T00:11:23.415Z,5.54
2023-03-08T00:13:52.209Z,5.52
2023-03-08T00:16:21.017Z,5.59
2023-03-08T00:18:55.837Z,5.63
2023-03-08T00:21:25.356Z,5.60
2023-03-08T00:23:57.403Z,5.63
2023-03-08T00:26:28.664Z,5.68
2023-03-08T00:29:05.293Z,5.73
2023-03-08T00:32:03.400Z,5.62
2023-03-08T00:34:32.929Z,5.61
2023-03-08T00:37:06.576Z,5.59
2023-03-08T00:39:40.387Z,5.49
2023-03-08T00:42:09.596Z,5.51
2023-03-08T00:44:42.031Z,5.39
2023-03-08T00:47:15.995Z,5.42
2023-03-08T00:50:11.298Z,5.49
2023-03-08T00:52:39.915Z,5.40
2023-03-08T00:55:10.642Z,5.44
2023-03-08T00:57:42.656Z,5.48
2023-03-08T01:00:16.007Z,5.45
2023-03-08T01:02:44.077Z,5.44
2023-03-08T01:05:12.587Z,5.36
2023-03-08T01:08:21.170Z,5.27
2023-03-08T01:10:54.597Z,5.27
2023-03-08T01:13:41.369Z,5.30
2023-03-08T01:16:23.753Z,5.25
2023-03-08T01:18:57.010Z,5.41
2023-03-08T01:21:27.739Z,5.51
2023-03-08T01:23:59.006Z,5.47
2023-03-08T01:26:32.337Z,5.38
2023-03-08T01:29:02.365Z,5.35
2023-03-08T01:31:41.058Z,5.34
2023-03-08T01:34:11.706Z,5.40
2023-03-08T01:36:40.928Z,5.36
2023-03-08T01:39:13.597Z,5.32
2023-03-08T01:41:43.490Z,5.38
2023-03-08T01:44:16.897Z,5.41
2023-03-08T01:46:45.360Z,5.41
2023-03-08T01:49:27.569Z,5.25
2023-03-08T01:52:03.061Z,5.29
2023-03-08T01:54:40.364Z,5.27
2023-03-08T01:57:22.354Z,5.22
2023-03-08T01:59:53.940Z,5.22
2023-03-08T02:02:28.416Z,5.18
2023-03-08T02:04:57.543Z,5.24
2023-03-08T02:07:27.496Z,5.16
2023-03-08T02:09:56.336Z,5.13
2023-03-08T02:12:24.827Z,5.13
2023-03-08T02:14:53.518Z,5.15
2023-03-08T02:17:23.603Z,5.11
2023-03-08T02:20:19.702Z,5.06
2023-03-08T02:22:52.278Z,4.99
2023-03-08T02:25:27.010Z,5.03
2023-03-08T02:27:56.495Z,4.99
2023-03-08T02:30:30.087Z,5.01
2023-03-08T02:32:59.183Z,5.02
2023-03-08T02:35:30.652Z,5.03
2023-03-08T02:37:58.723Z,5.09
2023-03-08T02:40:26.402Z,5.09
2023-03-08T02:42:56.574Z,5.14
2023-03-08T02:45:24.786Z,5.13
2023-03-08T02:47:53.734Z,5.32
2023-03-08T02:50:21.684Z,5.44
2023-03-08T02:52:55.548Z,5.53
2023-03-08T02:55:27.318Z,5.54
2023-03-08T02:57:57.163Z,5.55
2023-03-08T03:00:28.846Z,5.62
2023-03-08T03:02:59.324Z,5.67
2023-03-08T03:05:34.077Z,5.70
2023-03-08T03:08:13.498Z,5.79
2023-03-08T03:10:58.278Z,5.78
2023-03-08T03:13:43.772Z,5.73
2023-03-08T03:16:19.440Z,5.80
2023-03-08T03:19:05.416Z,5.88
2023-03-08T03:21:44.743Z,5.94
2023-03-08T03:24:18.378Z,5.99
2023-03-08T03:26:54.875Z,5.98
2023-03-08T03:29:25.653Z,5.77
2023-03-08T03:32:01.403Z,5.72
2023-03-08T03:35:00.594Z,5.79
2023-03-08T03:37:37.164Z,5.76
2023-03-08T03:40:07.011Z,5.73
2023-03-08T03:42:35.898Z,5.62
2023-03-08T03:45:11.860Z,5.49
2023-03-08T03:47:44.199Z,5.56
2023-03-08T03:50:16.379Z,5.59
2023-03-08T03:53:16.988Z,5.36
2023-03-08T03:55:47.614Z,5.27
2023-03-08T03:58:18.477Z,5.32
2023-03-08T04:01:17.970Z,5.34
2023-03-08T04:03:57.740Z,5.34
2023-03-08T04:06:32.771Z,5.32
2023-03-08T04:09:08.496Z,5.24
2023-03-08T04:11:44.262Z,5.21
2023-03-08T04:14:19.795Z,5.20
2023-03-08T04:16:50.434Z,5.14
2023-03-08T04:19:29.760Z,5.08
2023-03-08T04:22:02.385Z,5.23
2023-03-08T04:24:43.678Z,5.23
2023-03-08T04:27:18.031Z,5.21
2023-03-08T04:29:56.066Z,5.16
2023-03-08T04:32:30.559Z,5.13
2023-03-08T04:34:59.789Z,5.23
2023-03-08T04:37:37.467Z,5.12
2023-03-08T04:40:14.956Z,5.14
2023-03-08T04:42:55.957Z,5.17
2023-03-08T04:45:33.526Z,5.10
2023-03-08T04:48:07.504Z,5.08
2023-03-08T04:50:42.275Z,5.12
2023-03-08T04:53:21.193Z,5.20
2023-03-08T04:55:57.324Z,5.30
2023-03-08T04:58:34.415Z,5.32
2023-03-08T05:01:23.898Z,5.27
2023-03-08T05:04:07.411Z,5.20
2023-03-08T05:06:49.410Z,5.16
2023-03-08T05:09:23.774Z,5.21
2023-03-08T05:11:59.075Z,5.26
2023-03-08T05:14:41.074Z,5.28
2023-03-08T05:17:09.434Z,5.45
2023-03-08T05:19:41.477Z,5.58
2023-03-08T05:22:13.770Z,5.49
2023-03-08T05:24:53.712Z,5.43
2023-03-08T05:27:23.431Z,5.36
2023-03-08T05:29:54.923Z,5.32
2023-03-08T05:32:23.613Z,5.35
2023-03-08T05:35:02.753Z,5.40
2023-03-08T05:37:42.488Z,5.43
2023-03-08T05:40:13.300Z,5.47
2023-03-08T05:42:44.976Z,5.47
2023-03-08T05:45:16.594Z,5.49
2023-03-08T05:47:46.245Z,5.41
2023-03-08T05:50:14.401Z,5.49
2023-03-08T05:52:46.989Z,5.51
2023-03-08T05:55:26.059Z,5.58
2023-03-08T05:57:54.407Z,5.60
2023-03-08T06:00:23.257Z,5.66
2023-03-08T06:03:04.149Z,5.57
2023-03-08T06:05:35.312Z,5.58
2023-03-08T06:08:16.265Z,5.56
2023-03-08T06:10:46.519Z,5.57
2023-03-08T06:13:17.201Z,5.60
2023-03-08T06:15:45.089Z,5.71
2023-03-08T06:18:16.560Z,5.79
2023-03-08T06:20:59.525Z,5.84
2023-03-08T06:23:31.135Z,5.93
2023-03-08T06:25:59.923Z,5.95
2023-03-08T06:28:31.112Z,5.94
2023-03-08T06:31:05.352Z,5.94
2023-03-08T06:33:36.131Z,6.00
2023-03-08T06:36:06.647Z,6.08
2023-03-08T06:38:37.250Z,6.23
2023-03-08T06:41:06.303Z,6.24
2023-03-08T06:43:36.478Z,6.25
2023-03-08T06:46:10.765Z,6.38
2023-03-08T06:48:40.896Z,6.40
2023-03-08T06:51:09.373Z,6.46
2023-03-08T06:53:38.843Z,6.64
2023-03-08T06:56:11.657Z,6.64
2023-03-08T06:58:39.669Z,6.73
2023-03-08T07:01:09.880Z,6.69
2023-03-08T07:03:39.835Z,6.71
2023-03-08T07:06:09.981Z,6.78
2023-03-08T07:08:42.327Z,6.89
2023-03-08T07:11:10.875Z,6.74
2023-03-08T07:13:40.123Z,6.86
2023-03-08T07:16:12.905Z,6.86
2023-03-08T07:18:44.559Z,6.93
2023-03-08T07:21:13.147Z,6.87
2023-03-08T07:23:44.694Z,7.00
2023-03-08T07:26:13.626Z,7.01
2023-03-08T07:28:43.209Z,7.17
2023-03-08T07:31:12.477Z,7.19
2023-03-08T07:33:41.524Z,7.27
2023-03-08T07:36:09.328Z,7.37
2023-03-08T07:38:37.442Z,7.60
2023-03-08T07:41:08.916Z,7.50
2023-03-08T07:43:37.007Z,7.53
2023-03-08T07:46:10.298Z,7.56
2023-03-08T07:48:40.165Z,7.54
2023-03-08T07:51:18.390Z,7.51
2023-03-08T07:53:47.980Z,7.51
2023-03-08T07:56:19.418Z,7.46
2023-03-08T07:58:48.785Z,7.39
2023-03-08T08:01:16.907Z,7.49
2023-03-08T08:03:45.992Z,7.57
2023-03-08T08:06:16.898Z,7.61
2023-03-08T08:08:45.450Z,7.63
2023-03-08T08:11:38.728Z,7.66
2023-03-08T08:14:08.814Z,7.69
2023-03-08T08:16:36.794Z,7.85
2023-03-08T08:19:06.460Z,7.73
2023-03-08T08:21:44.419Z,7.70
2023-03-08T08:24:12.634Z,7.68
2023-03-08T08:26:41.602Z,7.70
2023-03-08T08:29:09.761Z,7.78
2023-03-08T08:31:40.593Z,7.98
2023-03-08T08:34:13.600Z,8.03
2023-03-08T08:36:42.800Z,7.98
2023-03-08T08:39:16.528Z,7.89
2023-03-08T08:41:50.013Z,8.05
2023-03-08T08:44:18.281Z,8.21
2023-03-08T08:46:55.151Z,8.18
2023-03-08T08:49:25.765Z,8.41
2023-03-08T08:51:53.877Z,8.56
2023-03-08T08:54:22.683Z,8.68
2023-03-08T08:56:51.154Z,8.80
2023-03-08T08:59:19.098Z,8.78
2023-03-08T09:01:47.388Z,8.93
2023-03-08T09:04:17.691Z,8.91
2023-03-08T09:06:48.998Z,9.03
2023-03-08T09:09:18.425Z,9.04
2023-03-08T09:11:54.603Z,8.99
2023-03-08T09:14:24.365Z,9.18
2023-03-08T09:16:53.265Z,9.35
2023-03-08T09:19:24.338Z,9.45
2023-03-08T09:21:53.460Z,9.58
2023-03-08T09:24:21.893Z,9.65
2023-03-08T09:26:51.414Z,9.67
2023-03-08T09:29:19.755Z,9.75
2023-03-08T09:31:47.645Z,9.80
2023-03-08T09:34:16.800Z,9.93
2023-03-08T09:36:45.458Z,9.96
2023-03-08T09:39:14.063Z,10.09
2023-03-08T09:42:00.739Z,10.28
2023-03-08T09:44:44.080Z,10.39
2023-03-08T09:47:24.290Z,10.47
2023-03-08T09:49:56.218Z,10.58
2023-03-08T09:52:33.597Z,10.59
2023-03-08T09:55:04.433Z,10.70
2023-03-08T09:57:41.778Z,10.61
2023-03-08T10:00:20.929Z,10.59
2023-03-08T10:03:14.340Z,10.69
2023-03-08T10:05:53.659Z,10.91
2023-03-08T10:08:39.395Z,10.92
2023-03-08T10:11:20.233Z,11.08
2023-03-08T10:13:52.927Z,11.24
2023-03-08T10:16:33.948Z,11.26
2023-03-08T10:19:10.506Z,11.38
2023-03-08T10:21:42.106Z,11.37
2023-03-08T10:24:19.028Z,11.58
2023-03-08T10:26:46.650Z,11.66
2023-03-08T10:29:14.573Z,11.62
2023-03-08T10:31:47.243Z,11.74
2023-03-08T10:34:20.490Z,11.79
2023-03-08T10:36:56.859Z,11.75
2023-03-08T10:39:24.761Z,11.87
2023-03-08T10:41:59.399Z,12.02
2023-03-08T10:44:40.238Z,12.14
2023-03-08T10:47:30.850Z,12.12
2023-03-08T10:50:20.786Z,12.07
2023-03-08T10:52:51.074Z,12.08
2023-03-08T10:55:19.861Z,12.27
2023-03-08T10:57:58.612Z,12.56
2023-03-08T11:00:32.246Z,12.80
2023-03-08T11:03:20.197Z,12.99
2023-03-08T11:06:14.873Z,13.01
2023-03-08T11:08:55.899Z,12.84
2023-03-08T11:11:23.781Z,12.71
2023-03-08T11:13:54.168Z,12.70
2023-03-08T11:16:46.552Z,12.87
2023-03-08T11:19:36.237Z,13.04
2023-03-08T11:22:03.841Z,13.18
2023-03-08T11:24:47.109Z,13.29
2023-03-08T11:27:33.606Z,13.37
2023-03-08T11:30:17.468Z,13.22
2023-03-08T11:33:42.119Z,13.22
2023-03-08T11:36:35.386Z,13.27
2023-03-08T11:39:28.977Z,13.43
2023-03-08T11:42:06.723Z,13.38
2023-03-08T11:44:53.139Z,13.28
2023-03-08T11:47:39.215Z,13.27
2023-03-08T11:50:41.294Z,13.53
2023-03-08T11:53:22.982Z,13.57
2023-03-08T11:56:09.290Z,13.52
2023-03-08T11:58:49.310Z,13.49
2023-03-08T12:01:25.097Z,13.56
2023-03-08T12:03:57.994Z,13.66
2023-03-08T12:06:45.578Z,13.76
2023-03-08T12:09:28.390Z,13.84
2023-03-08T12:12:03.666Z,13.97
2023-03-08T12:14:35.406Z,13.85
2023-03-08T12:17:19.252Z,13.73
2023-03-08T12:19:49.871Z,13.72
2023-03-08T12:22:20.356Z,13.65
2023-03-08T12:25:09.652Z,13.64
2023-03-08T12:27:49.358Z,13.76
2023-03-08T12:30:44.031Z,13.96
2023-03-08T12:33:15.443Z,14.10
2023-03-08T12:35:59.465Z,13.97
2023-03-08T12:38:37.810Z,13.96
2023-03-08T12:41:34.826Z,14.03
2023-03-08T12:44:23.677Z,13.89
2023-03-08T12:47:03.235Z,13.82
2023-03-08T12:49:40.720Z,13.81
2023-03-08T12:52:20.680Z,13.84
2023-03-08T12:55:02.516Z,13.89
2023-03-08T12:57:48.458Z,13.92
2023-03-08T13:00:39.386Z,13.98
2023-03-08T13:03:14.094Z,14.00
2023-03-08T13:05:50.341Z,14.02
2023-03-08T13:08:23.880Z,14.01
2023-03-08T13:11:26.659Z,14.02
2023-03-08T13:14:00.951Z,14.00
2023-03-08T13:16:37.014Z,14.01
2023-03-08T13:19:14.971Z,14.02
2023-03-08T13:22:09.308Z,14.02
2023-03-08T13:24:46.891Z,14.02
2023-03-08T13:27:27.404Z,14.12
2023-03-08T13:30:18.524Z,14.19
2023-03-08T13:32:49.533Z,14.27
2023-03-08T13:35:18.827Z,14.30
2023-03-08T13:37:55.769Z,14.21
2023-03-08T13:40:24.159Z,14.16
2023-03-08T13:42:55.315Z,14.18
2023-03-08T13:45:24.235Z,14.08
2023-03-08T13:47:53.278Z,14.03
2023-03-08T13:50:26.859Z,13.98
2023-03-08T13:52:55.012Z,13.97
2023-03-08T13:55:33.962Z,13.90
2023-03-08T13:58:03.082Z,13.89
2023-03-08T14:00:36.189Z,13.89
2023-03-08T14:03:07.774Z,13.84
2023-03-08T14:05:43.970Z,13.78
2023-03-08T14:08:25.037Z,13.78
2023-03-08T14:11:03.858Z,13.72
2023-03-08T14:13:38.567Z,13.75
2023-03-08T14:16:09.561Z,13.73
2023-03-08T14:18:43.704Z,13.69
2023-03-08T14:21:31.226Z,13.72
2023-03-08T14:24:01.702Z,13.69
2023-03-08T14:26:38.381Z,13.71
2023-03-08T14:29:26.927Z,13.68
2023-03-08T14:31:59.310Z,13.56
2023-03-08T14:34:48.103Z,13.48
2023-03-08T14:37:25.498Z,13.48
2023-03-08T14:40:24.649Z,13.52
2023-03-08T14:42:56.747Z,13.47
2023-03-08T14:45:29.551Z,13.47
2023-03-08T14:47:59.967Z,13.41
2023-03-08T14:50:33.240Z,13.35
2023-03-08T14:53:03.118Z,13.34
2023-03-08T14:55:35.994Z,13.35
2023-03-08T14:58:11.770Z,13.26
2023-03-08T15:00:55.915Z,13.23
2023-03-08T15:03:23.929Z,13.15
2023-03-08T15:05:52.909Z,13.13
2023-03-08T15:08:21.835Z,13.12
2023-03-08T15:10:50.655Z,13.04
2023-03-08T15:13:22.411Z,13.04
2023-03-08T15:15:54.032Z,13.01
2023-03-08T15:18:23.239Z,12.92
2023-03-08T15:20:52.204Z,12.95
2023-03-08T15:23:27.069Z,12.98
2023-03-08T15:25:54.947Z,12.99
2023-03-08T15:28:23.667Z,13.03
2023-03-08T15:30:54.888Z,12.96
2023-03-08T15:33:23.151Z,12.82
2023-03-08T15:35:52.108Z,12.74
2023-03-08T15:38:21.561Z,12.73
2023-03-08T15:40:52.153Z,12.71
2023-03-08T15:43:21.037Z,12.65
2023-03-08T15:45:48.535Z,12.61
2023-03-08T15:48:18.685Z,12.60
2023-03-08T15:50:47.098Z,12.51
2023-03-08T15:53:26.188Z,12.46
2023-03-08T15:56:00.910Z,12.43
2023-03-08T15:58:28.752Z,12.42
2023-03-08T16:00:56.320Z,12.38
2023-03-08T16:03:31.076Z,12.35
2023-03-08T16:05:59.853Z,12.32
2023-03-08T16:08:29.109Z,12.26
2023-03-08T16:11:03.914Z,12.25
2023-03-08T16:13:34.329Z,12.21
2023-03-08T16:16:03.700Z,12.18
2023-03-08T16:18:32.311Z,12.19
2023-03-08T16:21:00.199Z,12.15
2023-03-08T16:23:27.850Z,12.24
2023-03-08T16:26:15.245Z,12.24
2023-03-08T16:28:47.085Z,12.30
2023-03-08T16:31:16.355Z,12.33
2023-03-08T16:33:44.846Z,12.33
2023-03-08T16:36:12.984Z,12.27
2023-03-08T16:38:43.439Z,12.21
2023-03-08T16:41:13.886Z,12.22
2023-03-08T16:43:47.934Z,12.20
2023-03-08T16:46:19.724Z,12.25
2023-03-08T16:48:54.449Z,12.24
2023-03-08T16:51:26.254Z,12.25
2023-03-08T16:53:54.851Z,12.21
2023-03-08T16:56:26.440Z,12.20
2023-03-08T16:58:56.527Z,12.21
2023-03-08T17:01:27.344Z,12.15
2023-03-08T17:03:56.407Z,12.13
2023-03-08T17:06:27.812Z,12.12
2023-03-08T17:08:57.926Z,12.12
2023-03-08T17:11:28.559Z,12.14
2023-03-08T17:14:08.484Z,12.13
2023-03-08T17:16:43.584Z,12.04
2023-03-08T17:19:13.310Z,12.01
2023-03-08T17:21:41.199Z,12.03
2023-03-08T17:24:14.255Z,11.94
2023-03-08T17:26:46.816Z,11.92
2023-03-08T17:29:15.124Z,11.89
2023-03-08T17:31:42.905Z,11.82
2023-03-08T17:34:16.384Z,11.82
2023-03-08T17:36:46.782Z,11.81
2023-03-08T17:39:14.761Z,11.74
2023-03-08T17:41:43.083Z,11.70
2023-03-08T17:44:11.404Z,11.68
2023-03-08T17:46:39.359Z,11.66
2023-03-08T17:49:07.856Z,11.65
2023-03-08T17:51:35.483Z,11.59
2023-03-08T17:54:03.354Z,11.52
2023-03-08T17:56:32.639Z,11.52
2023-03-08T17:59:03.138Z,11.46
2023-03-08T18:01:32.332Z,11.43
2023-03-08T18:04:00.879Z,11.35
2023-03-08T18:06:36.646Z,11.32
2023-03-08T18:09:08.143Z,11.27
2023-03-08T18:11:38.004Z,11.22
2023-03-08T18:14:06.349Z,11.18
2023-03-08T18:16:34.798Z,11.16
2023-03-08T18:19:06.718Z,11.11
2023-03-08T18:21:38.808Z,11.09
2023-03-08T18:24:09.258Z,11.07
2023-03-08T18:26:37.253Z,11.05
2023-03-08T18:29:05.057Z,10.99
2023-03-08T18:31:35.206Z,10.94
2023-03-08T18:34:03.258Z,10.96
2023-03-08T18:36:31.320Z,10.93
2023-03-08T18:38:58.982Z,10.90
2023-03-08T18:41:29.672Z,10.88
2023-03-08T18:44:00.846Z,10.85
2023-03-08T18:46:30.654Z,10.82
2023-03-08T18:49:07.047Z,10.75
2023-03-08T18:51:37.507Z,10.77
2023-03-08T18:54:06.066Z,10.73
2023-03-08T18:56:35.299Z,10.69
2023-03-08T18:59:05.354Z,10.69
2023-03-08T19:01:34.149Z,10.60
2023-03-08T19:04:07.100Z,10.60
2023-03-08T19:06:36.245Z,10.60
2023-03-08T19:09:12.089Z,10.63
2023-03-08T19:11:40.329Z,10.59
2023-03-08T19:14:09.755Z,10.55
2023-03-08T19:16:37.445Z,10.55
2023-03-08T19:19:08.920Z,10.53
2023-03-08T19:21:41.380Z,10.50
2023-03-08T19:24:11.675Z,10.51
2023-03-08T19:26:41.195Z,10.50
2023-03-08T19:29:19.824Z,10.49
2023-03-08T19:32:05.344Z,10.45
2023-03-08T19:34:36.962Z,10.41
2023-03-08T19:37:06.649Z,10.40
2023-03-08T19:39:37.408Z,10.39
2023-03-08T19:42:12.363Z,10.34
2023-03-08T19:44:40.916Z,10.30
2023-03-08T19:47:10.249Z,10.30
2023-03-08T19:49:40.036Z,10.30
2023-03-08T19:52:08.330Z,10.27
2023-03-08T19:54:37.141Z,10.22
2023-03-08T19:57:05.519Z,10.16
2023-03-08T19:59:38.755Z,10.16
2023-03-08T20:02:09.105Z,10.08
2023-03-08T20:04:36.924Z,10.06
2023-03-08T20:07:05.013Z,10.03
2023-03-08T20:09:33.768Z,10.02
2023-03-08T20:12:01.428Z,9.97
2023-03-08T20:14:30.718Z,10.01
2023-03-08T20:16:59.719Z,10.01
2023-03-08T20:19:32.023Z,9.94
2023-03-08T20:22:00.879Z,9.91
2023-03-08T20:24:35.528Z,9.84
2023-03-08T20:27:04.320Z,9.86
2023-03-08T20:29:31.944Z,9.86
2023-03-08T20:31:59.664Z,9.86
2023-03-08T20:34:27.598Z,9.86
2023-03-08T20:36:56.368Z,9.85
2023-03-08T20:39:24.472Z,9.85
2023-03-08T20:41:53.885Z,9.85
2023-03-08T20:44:21.646Z,9.93
2023-03-08T20:46:49.324Z,9.97
2023-03-08T20:49:17.859Z,9.95
2023-03-08T20:51:47.951Z,9.89
2023-03-08T20:54:23.267Z,9.77
2023-03-08T20:56:50.946Z,9.65
2023-03-08T20:59:23.214Z,9.64
2023-03-08T21:01:51.384Z,9.57
2023-03-08T21:04:19.521Z,9.53
2023-03-08T21:06:48.342Z,9.55
2023-03-08T21:09:16.529Z,9.56
2023-03-08T21:11:45.281Z,9.51
2023-03-08T21:14:13.111Z,9.53
2023-03-08T21:16:41.702Z,9.49
2023-03-08T21:19:09.589Z,9.43
2023-03-08T21:21:42.644Z,9.49
2023-03-08T21:24:17.187Z,9.47
2023-03-08T21:26:45.709Z,9.45
2023-03-08T21:29:16.019Z,9.47
2023-03-08T21:31:50.311Z,9.48
2023-03-08T21:34:19.920Z,9.47
2023-03-08T21:36:48.915Z,9.50
2023-03-08T21:39:18.846Z,9.55
2023-03-08T21:41:49.215Z,9.54
2023-03-08T21:44:18.071Z,9.56
2023-03-08T21:46:47.037Z,9.49
2023-03-08T21:49:23.302Z,9.50
2023-03-08T21:51:52.010Z,9.41
2023-03-08T21:54:22.465Z,9.38
2023-03-08T21:56:50.475Z,9.34
2023-03-08T21:59:19.041Z,9.24
2023-03-08T22:01:48.619Z,9.21
2023-03-08T22:04:17.758Z,9.19
2023-03-08T22:06:46.500Z,9.16
2023-03-08T22:09:14.247Z,9.08
2023-03-08T22:11:42.058Z,9.10
2023-03-08T22:14:11.768Z,9.10
2023-03-08T22:16:42.255Z,9.01
2023-03-08T22:19:11.187Z,9.03
2023-03-08T22:21:38.809Z,8.97
2023-03-08T22:24:10.228Z,8.89
2023-03-08T22:26:37.973Z,8.91
2023-03-08T22:29:05.783Z,8.91
2023-03-08T22:31:34.663Z,8.94
2023-03-08T22:34:03.349Z,8.88
2023-03-08T22:36:31.082Z,8.85
2023-03-08T22:38:58.664Z,8.83
2023-03-08T22:41:27.942Z,8.83
2023-03-08T22:43:56.100Z,8.87
2023-03-08T22:46:27.471Z,8.80
2023-03-08T22:48:59.218Z,8.75
2023-03-08T22:51:28.550Z,8.73
2023-03-08T22:53:56.874Z,8.69
2023-03-08T22:56:29.690Z,8.64
2023-03-08T22:58:58.151Z,8.69
2023-03-08T23:01:30.831Z,8.64
2023-03-08T23:04:00.508Z,8.68
2023-03-08T23:06:30.012Z,8.65
2023-03-08T23:08:59.822Z,8.65
2023-03-08T23:11:29.334Z,8.55
2023-03-08T23:13:57.964Z,8.52
2023-03-08T23:16:26.869Z,8.57
2023-03-08T23:18:55.246Z,8.50
2023-03-08T23:21:25.033Z,8.51
2023-03-08T23:23:57.449Z,8.45
2023-03-08T23:26:27.522Z,8.41
2023-03-08T23:28:56.224Z,8.44
2023-03-08T23:31:26.578Z,8.38
2023-03-08T23:33:55.505Z,8.36
2023-03-08T23:36:25.668Z,8.34
2023-03-08T23:38:55.384Z,8.31
2023-03-08T23:41:27.103Z,8.31
2023-03-08T23:43:59.778Z,8.33
2023-03-08T23:46:30.545Z,8.43
2023-03-08T23:49:02.055Z,8.47
2023-03-08T23:51:33.932Z,8.42
2023-03-08T23:54:03.719Z,8.12
2023-03-08T23:56:40.199Z,8.07
2023-03-08T23:59:18.517Z,8.19
